sensor_id;sensor_type;location;lat;lon;timestamp;P1;durP1;ratioP1;P2;durP2;ratioP2
38037;SDS011;23843;51.320;12.340;2023-10-13T00:00:53;2.03;;;1.00;;
38037;SDS011;23843;51.320;12.340;2023-10-13T00:03:19;1.58;;;1.00;;
38037;SDS011;23843;51.320;12.340;2023-10-13T00:05:45;0.70;;;0.70;;
38037;SDS011;23843;51.320;12.340;2023-10-13T00:08:11;0.50;;;0.50;;
38037;SDS011;23843;51.320;12.340;2023-10-13T00:10:36;0.90;;;0.70;;
38037;SDS011;23843;51.320;12.340;2023-10-13T00:13:02;1.60;;;0.60;;
38037;SDS011;23843;51.320;12.340;2023-10-13T00:15:28;1.23;;;0.65;;
38037;SDS011;23843;51.320;12.340;2023-10-13T00:17:53;0.85;;;0.70;;
38037;SDS011;23843;51.320;12.340;2023-10-13T00:20:18;1.13;;;0.70;;
38037;SDS011;23843;51.320;12.340;2023-10-13T00:22:45;1.67;;;0.90;;
38037;SDS011;23843;51.320;12.340;2023-10-13T00:25:10;1.25;;;1.15;;
38037;SDS011;23843;51.320;12.340;2023-10-13T00:27:36;0.70;;;0.70;;
38037;SDS011;23843;51.320;12.340;2023-10-13T00:30:04;1.00;;;0.75;;
38037;SDS011;23843;51.320;12.340;2023-10-13T00:32:30;1.95;;;0.90;;
38037;SDS011;23843;51.320;12.340;2023-10-13T00:34:56;0.82;;;0.70;;
38037;SDS011;23843;51.320;12.340;2023-10-13T00:37:21;1.00;;;0.70;;
38037;SDS011;23843;51.320;12.340;2023-10-13T00:39:48;2.88;;;0.80;;
38037;SDS011;23843;51.320;12.340;2023-10-13T00:42:14;0.93;;;0.73;;
38037;SDS011;23843;51.320;12.340;2023-10-13T00:44:40;1.00;;;0.90;;
38037;SDS011;23843;51.320;12.340;2023-10-13T00:47:06;0.80;;;0.80;;
38037;SDS011;23843;51.320;12.340;2023-10-13T00:49:31;0.80;;;0.80;;
38037;SDS011;23843;51.320;12.340;2023-10-13T00:51:57;1.33;;;0.88;;
38037;SDS011;23843;51.320;12.340;2023-10-13T00:54:23;1.10;;;0.90;;
38037;SDS011;23843;51.320;12.340;2023-10-13T00:56:50;1.10;;;0.75;;
38037;SDS011;23843;51.320;12.340;2023-10-13T00:59:18;1.00;;;0.80;;
38037;SDS011;23843;51.320;12.340;2023-10-13T01:01:44;0.98;;;0.88;;
38037;SDS011;23843;51.320;12.340;2023-10-13T01:04:10;0.60;;;0.60;;
38037;SDS011;23843;51.320;12.340;2023-10-13T01:06:36;0.70;;;0.68;;
38037;SDS011;23843;51.320;12.340;2023-10-13T01:09:02;1.08;;;0.80;;
38037;SDS011;23843;51.320;12.340;2023-10-13T01:11:49;1.08;;;0.80;;
38037;SDS011;23843;51.320;12.340;2023-10-13T01:14:15;0.98;;;0.80;;
38037;SDS011;23843;51.320;12.340;2023-10-13T01:17:01;0.75;;;0.70;;
38037;SDS011;23843;51.320;12.340;2023-10-13T01:19:27;0.70;;;0.70;;
38037;SDS011;23843;51.320;12.340;2023-10-13T01:21:52;1.58;;;1.20;;
38037;SDS011;23843;51.320;12.340;2023-10-13T01:24:19;0.70;;;0.70;;
38037;SDS011;23843;51.320;12.340;2023-10-13T01:26:44;1.10;;;1.00;;
38037;SDS011;23843;51.320;12.340;2023-10-13T01:29:10;1.00;;;0.98;;
38037;SDS011;23843;51.320;12.340;2023-10-13T01:31:35;0.77;;;0.70;;
38037;SDS011;23843;51.320;12.340;2023-10-13T01:34:00;0.95;;;0.82;;
38037;SDS011;23843;51.320;12.340;2023-10-13T01:36:26;1.90;;;1.00;;
38037;SDS011;23843;51.320;12.340;2023-10-13T01:38:52;1.33;;;0.88;;
38037;SDS011;23843;51.320;12.340;2023-10-13T01:41:20;0.73;;;0.70;;
38037;SDS011;23843;51.320;12.340;2023-10-13T01:43:45;1.58;;;0.98;;
38037;SDS011;23843;51.320;12.340;2023-10-13T01:46:11;0.68;;;0.68;;
38037;SDS011;23843;51.320;12.340;2023-10-13T01:48:36;0.70;;;0.70;;
38037;SDS011;23843;51.320;12.340;2023-10-13T01:51:02;0.90;;;0.80;;
38037;SDS011;23843;51.320;12.340;2023-10-13T01:53:27;1.52;;;0.80;;
38037;SDS011;23843;51.320;12.340;2023-10-13T01:55:53;0.80;;;0.70;;
38037;SDS011;23843;51.320;12.340;2023-10-13T01:58:20;1.00;;;0.80;;
38037;SDS011;23843;51.320;12.340;2023-10-13T02:00:45;2.55;;;0.90;;
38037;SDS011;23843;51.320;12.340;2023-10-13T02:03:11;0.85;;;0.80;;
38037;SDS011;23843;51.320;12.340;2023-10-13T02:05:37;0.65;;;0.65;;
38037;SDS011;23843;51.320;12.340;2023-10-13T02:08:03;0.88;;;0.80;;
38037;SDS011;23843;51.320;12.340;2023-10-13T02:10:29;1.35;;;0.75;;
38037;SDS011;23843;51.320;12.340;2023-10-13T02:12:54;1.08;;;0.98;;
38037;SDS011;23843;51.320;12.340;2023-10-13T02:15:41;0.88;;;0.63;;
38037;SDS011;23843;51.320;12.340;2023-10-13T02:18:06;0.80;;;0.70;;
38037;SDS011;23843;51.320;12.340;2023-10-13T02:20:40;1.52;;;0.90;;
38037;SDS011;23843;51.320;12.340;2023-10-13T02:23:06;1.23;;;0.90;;
38037;SDS011;23843;51.320;12.340;2023-10-13T02:25:51;0.70;;;0.70;;
38037;SDS011;23843;51.320;12.340;2023-10-13T02:28:17;0.85;;;0.68;;
38037;SDS011;23843;51.320;12.340;2023-10-13T02:30:44;0.95;;;0.80;;
38037;SDS011;23843;51.320;12.340;2023-10-13T02:33:30;0.80;;;0.80;;
38037;SDS011;23843;51.320;12.340;2023-10-13T02:35:59;0.75;;;0.75;;
38037;SDS011;23843;51.320;12.340;2023-10-13T02:38:24;1.00;;;0.80;;
38037;SDS011;23843;51.320;12.340;2023-10-13T02:40:50;0.68;;;0.68;;
38037;SDS011;23843;51.320;12.340;2023-10-13T02:43:15;0.88;;;0.75;;
38037;SDS011;23843;51.320;12.340;2023-10-13T02:45:40;0.88;;;0.88;;
38037;SDS011;23843;51.320;12.340;2023-10-13T02:48:07;0.70;;;0.70;;
38037;SDS011;23843;51.320;12.340;2023-10-13T02:50:32;0.82;;;0.75;;
38037;SDS011;23843;51.320;12.340;2023-10-13T02:52:58;0.75;;;0.75;;
38037;SDS011;23843;51.320;12.340;2023-10-13T02:55:23;1.52;;;0.68;;
38037;SDS011;23843;51.320;12.340;2023-10-13T02:57:48;1.13;;;0.77;;
38037;SDS011;23843;51.320;12.340;2023-10-13T03:00:14;1.48;;;1.38;;
38037;SDS011;23843;51.320;12.340;2023-10-13T03:02:39;0.60;;;0.60;;
38037;SDS011;23843;51.320;12.340;2023-10-13T03:05:06;0.75;;;0.75;;
38037;SDS011;23843;51.320;12.340;2023-10-13T03:07:31;0.85;;;0.85;;
38037;SDS011;23843;51.320;12.340;2023-10-13T03:10:05;0.88;;;0.70;;
38037;SDS011;23843;51.320;12.340;2023-10-13T03:12:30;0.77;;;0.70;;
38037;SDS011;23843;51.320;12.340;2023-10-13T03:14:55;0.70;;;0.70;;
38037;SDS011;23843;51.320;12.340;2023-10-13T03:17:21;0.93;;;0.70;;
38037;SDS011;23843;51.320;12.340;2023-10-13T03:19:46;0.73;;;0.70;;
38037;SDS011;23843;51.320;12.340;2023-10-13T03:22:13;0.60;;;0.60;;
38037;SDS011;23843;51.320;12.340;2023-10-13T03:24:39;0.80;;;0.80;;
38037;SDS011;23843;51.320;12.340;2023-10-13T03:27:04;1.00;;;0.70;;
38037;SDS011;23843;51.320;12.340;2023-10-13T03:29:30;1.13;;;1.02;;
38037;SDS011;23843;51.320;12.340;2023-10-13T03:31:56;0.73;;;0.70;;
38037;SDS011;23843;51.320;12.340;2023-10-13T03:34:22;0.60;;;0.60;;
38037;SDS011;23843;51.320;12.340;2023-10-13T03:37:02;0.80;;;0.77;;
38037;SDS011;23843;51.320;12.340;2023-10-13T03:39:29;0.70;;;0.70;;
38037;SDS011;23843;51.320;12.340;2023-10-13T03:41:56;0.90;;;0.60;;
38037;SDS011;23843;51.320;12.340;2023-10-13T03:44:22;1.10;;;0.65;;
38037;SDS011;23843;51.320;12.340;2023-10-13T03:46:48;1.48;;;0.70;;
38037;SDS011;23843;51.320;12.340;2023-10-13T03:49:14;0.70;;;0.70;;
38037;SDS011;23843;51.320;12.340;2023-10-13T03:51:39;0.75;;;0.75;;
38037;SDS011;23843;51.320;12.340;2023-10-13T03:54:04;0.70;;;0.70;;
38037;SDS011;23843;51.320;12.340;2023-10-13T03:56:31;0.80;;;0.73;;
38037;SDS011;23843;51.320;12.340;2023-10-13T03:58:57;0.73;;;0.70;;
38037;SDS011;23843;51.320;12.340;2023-10-13T04:01:22;1.02;;;0.80;;
38037;SDS011;23843;51.320;12.340;2023-10-13T04:03:48;1.25;;;0.70;;
38037;SDS011;23843;51.320;12.340;2023-10-13T04:06:13;0.73;;;0.70;;
38037;SDS011;23843;51.320;12.340;2023-10-13T04:08:38;0.88;;;0.80;;
38037;SDS011;23843;51.320;12.340;2023-10-13T04:11:03;0.63;;;0.63;;
38037;SDS011;23843;51.320;12.340;2023-10-13T04:13:30;1.38;;;0.68;;
38037;SDS011;23843;51.320;12.340;2023-10-13T04:15:56;0.63;;;0.63;;
38037;SDS011;23843;51.320;12.340;2023-10-13T04:18:22;1.40;;;0.80;;
38037;SDS011;23843;51.320;12.340;2023-10-13T04:20:52;1.00;;;0.77;;
38037;SDS011;23843;51.320;12.340;2023-10-13T04:23:18;1.00;;;0.90;;
38037;SDS011;23843;51.320;12.340;2023-10-13T04:25:43;0.60;;;0.60;;
38037;SDS011;23843;51.320;12.340;2023-10-13T04:28:09;0.70;;;0.70;;
38037;SDS011;23843;51.320;12.340;2023-10-13T04:30:36;1.38;;;0.60;;
38037;SDS011;23843;51.320;12.340;2023-10-13T04:33:02;1.38;;;0.70;;
38037;SDS011;23843;51.320;12.340;2023-10-13T04:35:28;0.85;;;0.85;;
38037;SDS011;23843;51.320;12.340;2023-10-13T04:37:53;0.80;;;0.80;;
38037;SDS011;23843;51.320;12.340;2023-10-13T04:40:19;0.80;;;0.80;;
38037;SDS011;23843;51.320;12.340;2023-10-13T04:42:44;0.68;;;0.68;;
38037;SDS011;23843;51.320;12.340;2023-10-13T04:45:30;1.00;;;0.70;;
38037;SDS011;23843;51.320;12.340;2023-10-13T04:47:58;0.65;;;0.65;;
38037;SDS011;23843;51.320;12.340;2023-10-13T04:50:24;0.68;;;0.68;;
38037;SDS011;23843;51.320;12.340;2023-10-13T04:53:09;1.13;;;0.70;;
38037;SDS011;23843;51.320;12.340;2023-10-13T04:55:36;0.63;;;0.63;;
38037;SDS011;23843;51.320;12.340;2023-10-13T04:58:21;0.52;;;0.52;;
38037;SDS011;23843;51.320;12.340;2023-10-13T05:01:06;0.85;;;0.70;;
38037;SDS011;23843;51.320;12.340;2023-10-13T05:03:33;1.30;;;1.20;;
38037;SDS011;23843;51.320;12.340;2023-10-13T05:05:59;0.60;;;0.60;;
38037;SDS011;23843;51.320;12.340;2023-10-13T05:08:24;1.00;;;0.80;;
38037;SDS011;23843;51.320;12.340;2023-10-13T05:10:49;0.65;;;0.65;;
38037;SDS011;23843;51.320;12.340;2023-10-13T05:13:15;0.60;;;0.60;;
38037;SDS011;23843;51.320;12.340;2023-10-13T05:15:43;1.15;;;0.90;;
38037;SDS011;23843;51.320;12.340;2023-10-13T05:18:09;0.63;;;0.60;;
38037;SDS011;23843;51.320;12.340;2023-10-13T05:20:35;0.95;;;0.60;;
38037;SDS011;23843;51.320;12.340;2023-10-13T05:23:00;0.70;;;0.70;;
38037;SDS011;23843;51.320;12.340;2023-10-13T05:25:26;1.13;;;0.98;;
38037;SDS011;23843;51.320;12.340;2023-10-13T05:27:51;0.73;;;0.70;;
38037;SDS011;23843;51.320;12.340;2023-10-13T05:30:16;2.08;;;0.70;;
38037;SDS011;23843;51.320;12.340;2023-10-13T05:32:42;0.90;;;0.80;;
38037;SDS011;23843;51.320;12.340;2023-10-13T05:35:07;1.60;;;0.82;;
38037;SDS011;23843;51.320;12.340;2023-10-13T05:37:34;1.15;;;0.57;;
38037;SDS011;23843;51.320;12.340;2023-10-13T05:40:00;0.98;;;0.88;;
38037;SDS011;23843;51.320;12.340;2023-10-13T05:42:25;1.30;;;1.20;;
38037;SDS011;23843;51.320;12.340;2023-10-13T05:44:50;0.80;;;0.70;;
38037;SDS011;23843;51.320;12.340;2023-10-13T05:47:16;1.23;;;0.77;;
38037;SDS011;23843;51.320;12.340;2023-10-13T05:49:41;1.33;;;0.77;;
38037;SDS011;23843;51.320;12.340;2023-10-13T05:52:07;0.77;;;0.77;;
38037;SDS011;23843;51.320;12.340;2023-10-13T05:54:34;0.98;;;0.85;;
38037;SDS011;23843;51.320;12.340;2023-10-13T05:57:00;0.88;;;0.88;;
38037;SDS011;23843;51.320;12.340;2023-10-13T05:59:25;0.75;;;0.75;;
38037;SDS011;23843;51.320;12.340;2023-10-13T06:01:51;0.75;;;0.70;;
38037;SDS011;23843;51.320;12.340;2023-10-13T06:04:17;1.00;;;0.80;;
38037;SDS011;23843;51.320;12.340;2023-10-13T06:06:52;1.67;;;0.82;;
38037;SDS011;23843;51.320;12.340;2023-10-13T06:09:18;0.70;;;0.70;;
38037;SDS011;23843;51.320;12.340;2023-10-13T06:11:45;0.68;;;0.68;;
38037;SDS011;23843;51.320;12.340;2023-10-13T06:14:30;0.80;;;0.70;;
38037;SDS011;23843;51.320;12.340;2023-10-13T06:16:56;0.82;;;0.70;;
38037;SDS011;23843;51.320;12.340;2023-10-13T06:19:41;1.35;;;0.68;;
38037;SDS011;23843;51.320;12.340;2023-10-13T06:22:26;0.60;;;0.60;;
38037;SDS011;23843;51.320;12.340;2023-10-13T06:25:12;1.17;;;0.73;;
38037;SDS011;23843;51.320;12.340;2023-10-13T06:27:48;0.70;;;0.70;;
38037;SDS011;23843;51.320;12.340;2023-10-13T06:30:33;0.60;;;0.60;;
38037;SDS011;23843;51.320;12.340;2023-10-13T06:33:19;0.65;;;0.57;;
38037;SDS011;23843;51.320;12.340;2023-10-13T06:36:05;0.80;;;0.70;;
38037;SDS011;23843;51.320;12.340;2023-10-13T06:38:48;0.88;;;0.70;;
38037;SDS011;23843;51.320;12.340;2023-10-13T06:41:13;0.70;;;0.68;;
38037;SDS011;23843;51.320;12.340;2023-10-13T06:43:40;0.73;;;0.73;;
38037;SDS011;23843;51.320;12.340;2023-10-13T06:46:05;0.70;;;0.70;;
38037;SDS011;23843;51.320;12.340;2023-10-13T06:48:31;1.25;;;1.15;;
38037;SDS011;23843;51.320;12.340;2023-10-13T06:50:56;0.90;;;0.90;;
38037;SDS011;23843;51.320;12.340;2023-10-13T06:53:21;0.68;;;0.68;;
38037;SDS011;23843;51.320;12.340;2023-10-13T06:55:47;2.70;;;1.00;;
38037;SDS011;23843;51.320;12.340;2023-10-13T06:58:12;1.08;;;0.80;;
38037;SDS011;23843;51.320;12.340;2023-10-13T07:00:39;1.15;;;0.68;;
38037;SDS011;23843;51.320;12.340;2023-10-13T07:03:04;0.73;;;0.73;;
38037;SDS011;23843;51.320;12.340;2023-10-13T07:05:29;1.33;;;0.80;;
38037;SDS011;23843;51.320;12.340;2023-10-13T07:07:55;0.90;;;0.70;;
38037;SDS011;23843;51.320;12.340;2023-10-13T07:10:20;1.50;;;0.80;;
38037;SDS011;23843;51.320;12.340;2023-10-13T07:12:45;1.10;;;0.70;;
38037;SDS011;23843;51.320;12.340;2023-10-13T07:15:11;0.85;;;0.85;;
38037;SDS011;23843;51.320;12.340;2023-10-13T07:17:38;1.15;;;0.90;;
38037;SDS011;23843;51.320;12.340;2023-10-13T07:20:04;1.10;;;0.80;;
38037;SDS011;23843;51.320;12.340;2023-10-13T07:22:29;1.15;;;1.00;;
38037;SDS011;23843;51.320;12.340;2023-10-13T07:25:01;3.42;;;0.88;;
38037;SDS011;23843;51.320;12.340;2023-10-13T07:27:35;0.70;;;0.70;;
38037;SDS011;23843;51.320;12.340;2023-10-13T07:30:00;1.00;;;0.90;;
38037;SDS011;23843;51.320;12.340;2023-10-13T07:32:28;0.70;;;0.70;;
38037;SDS011;23843;51.320;12.340;2023-10-13T07:35:08;2.05;;;1.10;;
38037;SDS011;23843;51.320;12.340;2023-10-13T07:37:48;0.70;;;0.70;;
38037;SDS011;23843;51.320;12.340;2023-10-13T07:40:33;0.80;;;0.70;;
38037;SDS011;23843;51.320;12.340;2023-10-13T07:43:18;1.17;;;0.85;;
38037;SDS011;23843;51.320;12.340;2023-10-13T07:45:44;0.77;;;0.70;;
38037;SDS011;23843;51.320;12.340;2023-10-13T07:48:29;1.08;;;0.85;;
38037;SDS011;23843;51.320;12.340;2023-10-13T07:51:01;0.73;;;0.70;;
38037;SDS011;23843;51.320;12.340;2023-10-13T07:53:47;1.73;;;0.90;;
38037;SDS011;23843;51.320;12.340;2023-10-13T07:56:32;0.55;;;0.55;;
38037;SDS011;23843;51.320;12.340;2023-10-13T07:59:04;0.93;;;0.88;;
38037;SDS011;23843;51.320;12.340;2023-10-13T08:01:49;1.42;;;0.88;;
38037;SDS011;23843;51.320;12.340;2023-10-13T08:04:34;0.95;;;0.73;;
38037;SDS011;23843;51.320;12.340;2023-10-13T08:07:01;1.02;;;0.90;;
38037;SDS011;23843;51.320;12.340;2023-10-13T08:09:27;1.52;;;1.15;;
38037;SDS011;23843;51.320;12.340;2023-10-13T08:11:52;0.90;;;0.80;;
38037;SDS011;23843;51.320;12.340;2023-10-13T08:14:17;1.10;;;1.08;;
38037;SDS011;23843;51.320;12.340;2023-10-13T08:16:43;1.23;;;0.85;;
38037;SDS011;23843;51.320;12.340;2023-10-13T08:19:08;1.35;;;1.25;;
38037;SDS011;23843;51.320;12.340;2023-10-13T08:21:33;2.65;;;1.00;;
38037;SDS011;23843;51.320;12.340;2023-10-13T08:24:00;1.63;;;1.10;;
38037;SDS011;23843;51.320;12.340;2023-10-13T08:26:28;3.40;;;1.85;;
38037;SDS011;23843;51.320;12.340;2023-10-13T08:28:53;2.28;;;1.13;;
38037;SDS011;23843;51.320;12.340;2023-10-13T08:31:18;1.52;;;1.10;;
38037;SDS011;23843;51.320;12.340;2023-10-13T08:33:44;1.35;;;0.98;;
38037;SDS011;23843;51.320;12.340;2023-10-13T08:36:09;1.52;;;1.08;;
38037;SDS011;23843;51.320;12.340;2023-10-13T08:38:35;1.63;;;0.95;;
38037;SDS011;23843;51.320;12.340;2023-10-13T08:41:02;1.40;;;1.10;;
38037;SDS011;23843;51.320;12.340;2023-10-13T08:43:28;1.35;;;0.98;;
38037;SDS011;23843;51.320;12.340;2023-10-13T08:45:57;1.98;;;1.20;;
38037;SDS011;23843;51.320;12.340;2023-10-13T08:48:22;1.42;;;1.10;;
38037;SDS011;23843;51.320;12.340;2023-10-13T08:50:49;2.40;;;1.20;;
38037;SDS011;23843;51.320;12.340;2023-10-13T08:53:15;1.77;;;1.02;;
38037;SDS011;23843;51.320;12.340;2023-10-13T08:55:43;1.48;;;1.30;;
38037;SDS011;23843;51.320;12.340;2023-10-13T08:58:29;0.98;;;0.90;;
38037;SDS011;23843;51.320;12.340;2023-10-13T09:00:55;1.52;;;0.90;;
38037;SDS011;23843;51.320;12.340;2023-10-13T09:03:22;1.88;;;1.00;;
38037;SDS011;23843;51.320;12.340;2023-10-13T09:06:08;1.63;;;1.20;;
38037;SDS011;23843;51.320;12.340;2023-10-13T09:08:47;1.77;;;1.13;;
38037;SDS011;23843;51.320;12.340;2023-10-13T09:11:13;1.05;;;0.88;;
38037;SDS011;23843;51.320;12.340;2023-10-13T09:13:40;1.13;;;1.00;;
38037;SDS011;23843;51.320;12.340;2023-10-13T09:16:14;1.35;;;0.95;;
38037;SDS011;23843;51.320;12.340;2023-10-13T09:19:01;1.63;;;1.00;;
38037;SDS011;23843;51.320;12.340;2023-10-13T09:21:46;1.20;;;0.95;;
38037;SDS011;23843;51.320;12.340;2023-10-13T09:24:32;3.10;;;1.05;;
38037;SDS011;23843;51.320;12.340;2023-10-13T09:27:20;1.85;;;1.08;;
38037;SDS011;23843;51.320;12.340;2023-10-13T09:29:55;2.20;;;1.15;;
38037;SDS011;23843;51.320;12.340;2023-10-13T09:32:20;1.33;;;0.98;;
38037;SDS011;23843;51.320;12.340;2023-10-13T09:34:46;1.30;;;1.00;;
38037;SDS011;23843;51.320;12.340;2023-10-13T09:37:11;1.63;;;0.90;;
38037;SDS011;23843;51.320;12.340;2023-10-13T09:39:36;1.50;;;1.40;;
38037;SDS011;23843;51.320;12.340;2023-10-13T09:42:03;1.10;;;1.00;;
38037;SDS011;23843;51.320;12.340;2023-10-13T09:44:30;1.88;;;1.15;;
38037;SDS011;23843;51.320;12.340;2023-10-13T09:46:58;1.70;;;0.90;;
38037;SDS011;23843;51.320;12.340;2023-10-13T09:49:25;1.52;;;1.00;;
38037;SDS011;23843;51.320;12.340;2023-10-13T09:51:52;2.42;;;1.13;;
38037;SDS011;23843;51.320;12.340;2023-10-13T09:54:20;1.17;;;0.98;;
38037;SDS011;23843;51.320;12.340;2023-10-13T09:56:48;1.52;;;0.90;;
38037;SDS011;23843;51.320;12.340;2023-10-13T09:59:16;1.23;;;0.90;;
38037;SDS011;23843;51.320;12.340;2023-10-13T10:01:44;1.70;;;1.33;;
38037;SDS011;23843;51.320;12.340;2023-10-13T10:04:13;1.30;;;1.00;;
38037;SDS011;23843;51.320;12.340;2023-10-13T10:06:39;1.60;;;0.80;;
38037;SDS011;23843;51.320;12.340;2023-10-13T10:09:05;1.10;;;0.82;;
38037;SDS011;23843;51.320;12.340;2023-10-13T10:11:36;1.15;;;1.00;;
38037;SDS011;23843;51.320;12.340;2023-10-13T10:14:10;1.75;;;1.48;;
38037;SDS011;23843;51.320;12.340;2023-10-13T10:16:40;1.13;;;0.93;;
38037;SDS011;23843;51.320;12.340;2023-10-13T10:19:30;1.33;;;1.00;;
38037;SDS011;23843;51.320;12.340;2023-10-13T10:22:05;1.73;;;1.55;;
38037;SDS011;23843;51.320;12.340;2023-10-13T10:24:30;0.70;;;0.70;;
38037;SDS011;23843;51.320;12.340;2023-10-13T10:27:23;1.60;;;1.10;;
38037;SDS011;23843;51.320;12.340;2023-10-13T10:29:52;1.17;;;1.00;;
38037;SDS011;23843;51.320;12.340;2023-10-13T10:32:21;1.20;;;1.00;;
38037;SDS011;23843;51.320;12.340;2023-10-13T10:35:08;1.42;;;1.00;;
38037;SDS011;23843;51.320;12.340;2023-10-13T10:37:34;1.95;;;0.80;;
38037;SDS011;23843;51.320;12.340;2023-10-13T10:40:19;1.08;;;0.98;;
38037;SDS011;23843;51.320;12.340;2023-10-13T10:42:50;0.98;;;0.77;;
38037;SDS011;23843;51.320;12.340;2023-10-13T10:45:23;1.52;;;1.40;;
38037;SDS011;23843;51.320;12.340;2023-10-13T10:48:08;1.17;;;1.00;;
38037;SDS011;23843;51.320;12.340;2023-10-13T10:50:57;0.80;;;0.70;;
38037;SDS011;23843;51.320;12.340;2023-10-13T10:53:25;1.00;;;0.90;;
38037;SDS011;23843;51.320;12.340;2023-10-13T10:56:10;1.23;;;0.90;;
38037;SDS011;23843;51.320;12.340;2023-10-13T10:58:50;1.02;;;0.82;;
38037;SDS011;23843;51.320;12.340;2023-10-13T11:01:18;0.80;;;0.80;;
38037;SDS011;23843;51.320;12.340;2023-10-13T11:03:52;1.40;;;0.90;;
38037;SDS011;23843;51.320;12.340;2023-10-13T11:06:19;1.27;;;1.20;;
38037;SDS011;23843;51.320;12.340;2023-10-13T11:08:44;1.00;;;0.80;;
38037;SDS011;23843;51.320;12.340;2023-10-13T11:11:10;1.10;;;0.80;;
38037;SDS011;23843;51.320;12.340;2023-10-13T11:13:41;1.58;;;1.00;;
38037;SDS011;23843;51.320;12.340;2023-10-13T11:16:07;1.73;;;1.35;;
38037;SDS011;23843;51.320;12.340;2023-10-13T11:18:32;1.73;;;0.90;;
38037;SDS011;23843;51.320;12.340;2023-10-13T11:20:57;1.33;;;0.80;;
38037;SDS011;23843;51.320;12.340;2023-10-13T11:23:24;0.95;;;0.85;;
38037;SDS011;23843;51.320;12.340;2023-10-13T11:25:55;0.77;;;0.77;;
38037;SDS011;23843;51.320;12.340;2023-10-13T11:28:21;1.10;;;0.77;;
38037;SDS011;23843;51.320;12.340;2023-10-13T11:30:46;1.52;;;0.90;;
38037;SDS011;23843;51.320;12.340;2023-10-13T11:33:12;0.80;;;0.75;;
38037;SDS011;23843;51.320;12.340;2023-10-13T11:35:38;1.10;;;0.90;;
38037;SDS011;23843;51.320;12.340;2023-10-13T11:38:04;0.68;;;0.68;;
38037;SDS011;23843;51.320;12.340;2023-10-13T11:40:31;0.82;;;0.82;;
38037;SDS011;23843;51.320;12.340;2023-10-13T11:42:56;0.88;;;0.82;;
38037;SDS011;23843;51.320;12.340;2023-10-13T11:45:21;1.15;;;0.90;;
38037;SDS011;23843;51.320;12.340;2023-10-13T11:47:46;0.77;;;0.70;;
38037;SDS011;23843;51.320;12.340;2023-10-13T11:50:12;1.13;;;0.80;;
38037;SDS011;23843;51.320;12.340;2023-10-13T11:52:37;1.83;;;1.10;;
38037;SDS011;23843;51.320;12.340;2023-10-13T11:55:03;1.00;;;0.90;;
38037;SDS011;23843;51.320;12.340;2023-10-13T11:57:30;1.10;;;1.00;;
38037;SDS011;23843;51.320;12.340;2023-10-13T11:59:55;1.23;;;0.82;;
38037;SDS011;23843;51.320;12.340;2023-10-13T12:02:21;1.10;;;0.73;;
38037;SDS011;23843;51.320;12.340;2023-10-13T12:04:47;1.27;;;0.95;;
38037;SDS011;23843;51.320;12.340;2023-10-13T12:07:13;2.20;;;0.85;;
38037;SDS011;23843;51.320;12.340;2023-10-13T12:09:38;1.13;;;0.77;;
38037;SDS011;23843;51.320;12.340;2023-10-13T12:12:04;0.70;;;0.70;;
38037;SDS011;23843;51.320;12.340;2023-10-13T12:14:30;1.13;;;1.00;;
38037;SDS011;23843;51.320;12.340;2023-10-13T12:16:56;2.30;;;1.05;;
38037;SDS011;23843;51.320;12.340;2023-10-13T12:19:21;2.53;;;1.20;;
38037;SDS011;23843;51.320;12.340;2023-10-13T12:21:47;2.05;;;1.08;;
38037;SDS011;23843;51.320;12.340;2023-10-13T12:24:12;1.67;;;1.27;;
38037;SDS011;23843;51.320;12.340;2023-10-13T12:26:37;1.98;;;1.00;;
38037;SDS011;23843;51.320;12.340;2023-10-13T12:29:03;2.53;;;1.48;;
38037;SDS011;23843;51.320;12.340;2023-10-13T12:31:29;2.70;;;1.58;;
38037;SDS011;23843;51.320;12.340;2023-10-13T12:33:55;2.67;;;1.30;;
38037;SDS011;23843;51.320;12.340;2023-10-13T12:36:20;2.78;;;1.55;;
38037;SDS011;23843;51.320;12.340;2023-10-13T12:38:45;2.13;;;1.40;;
38037;SDS011;23843;51.320;12.340;2023-10-13T12:41:11;1.70;;;1.40;;
38037;SDS011;23843;51.320;12.340;2023-10-13T12:43:36;2.25;;;1.30;;
38037;SDS011;23843;51.320;12.340;2023-10-13T12:46:01;2.45;;;1.50;;
38037;SDS011;23843;51.320;12.340;2023-10-13T12:48:28;2.47;;;1.55;;
38037;SDS011;23843;51.320;12.340;2023-10-13T12:50:53;3.63;;;1.30;;
38037;SDS011;23843;51.320;12.340;2023-10-13T12:53:19;2.22;;;2.00;;
38037;SDS011;23843;51.320;12.340;2023-10-13T12:55:44;1.80;;;1.45;;
38037;SDS011;23843;51.320;12.340;2023-10-13T12:58:10;3.40;;;1.42;;
38037;SDS011;23843;51.320;12.340;2023-10-13T13:00:35;2.33;;;1.75;;
38037;SDS011;23843;51.320;12.340;2023-10-13T13:03:01;3.63;;;1.63;;
38037;SDS011;23843;51.320;12.340;2023-10-13T13:05:28;1.50;;;1.40;;
38037;SDS011;23843;51.320;12.340;2023-10-13T13:07:54;1.77;;;1.45;;
38037;SDS011;23843;51.320;12.340;2023-10-13T13:10:19;2.15;;;1.50;;
38037;SDS011;23843;51.320;12.340;2023-10-13T13:13:05;1.75;;;1.65;;
38037;SDS011;23843;51.320;12.340;2023-10-13T13:15:30;2.75;;;1.60;;
38037;SDS011;23843;51.320;12.340;2023-10-13T13:17:56;4.95;;;1.55;;
38037;SDS011;23843;51.320;12.340;2023-10-13T13:20:21;2.28;;;1.45;;
38037;SDS011;23843;51.320;12.340;2023-10-13T13:22:49;2.65;;;1.80;;
38037;SDS011;23843;51.320;12.340;2023-10-13T13:25:14;2.20;;;1.60;;
38037;SDS011;23843;51.320;12.340;2023-10-13T13:27:40;2.25;;;2.05;;
38037;SDS011;23843;51.320;12.340;2023-10-13T13:30:05;2.30;;;1.70;;
38037;SDS011;23843;51.320;12.340;2023-10-13T13:32:31;2.25;;;1.63;;
38037;SDS011;23843;51.320;12.340;2023-10-13T13:34:56;1.80;;;1.50;;
38037;SDS011;23843;51.320;12.340;2023-10-13T13:37:21;3.42;;;1.95;;
38037;SDS011;23843;51.320;12.340;2023-10-13T13:39:48;2.30;;;1.67;;
38037;SDS011;23843;51.320;12.340;2023-10-13T13:42:13;3.15;;;2.10;;
38037;SDS011;23843;51.320;12.340;2023-10-13T13:44:38;2.95;;;1.60;;
38037;SDS011;23843;51.320;12.340;2023-10-13T13:47:03;2.53;;;1.55;;
38037;SDS011;23843;51.320;12.340;2023-10-13T13:49:29;3.03;;;2.15;;
38037;SDS011;23843;51.320;12.340;2023-10-13T13:51:54;1.98;;;1.70;;
38037;SDS011;23843;51.320;12.340;2023-10-13T13:54:19;2.95;;;2.05;;
38037;SDS011;23843;51.320;12.340;2023-10-13T13:56:46;2.13;;;1.90;;
38037;SDS011;23843;51.320;12.340;2023-10-13T13:59:11;3.45;;;2.03;;
38037;SDS011;23843;51.320;12.340;2023-10-13T14:01:36;2.22;;;1.77;;
38037;SDS011;23843;51.320;12.340;2023-10-13T14:04:02;3.35;;;2.00;;
38037;SDS011;23843;51.320;12.340;2023-10-13T14:06:27;2.28;;;2.00;;
38037;SDS011;23843;51.320;12.340;2023-10-13T14:08:53;2.13;;;1.92;;
38037;SDS011;23843;51.320;12.340;2023-10-13T14:11:19;3.95;;;1.98;;
38037;SDS011;23843;51.320;12.340;2023-10-13T14:13:45;2.78;;;1.95;;
38037;SDS011;23843;51.320;12.340;2023-10-13T14:16:11;2.90;;;1.88;;
38037;SDS011;23843;51.320;12.340;2023-10-13T14:18:36;2.40;;;1.85;;
38037;SDS011;23843;51.320;12.340;2023-10-13T14:21:01;2.38;;;1.70;;
38037;SDS011;23843;51.320;12.340;2023-10-13T14:23:26;2.17;;;1.83;;
38037;SDS011;23843;51.320;12.340;2023-10-13T14:25:52;2.67;;;2.25;;
38037;SDS011;23843;51.320;12.340;2023-10-13T14:28:17;2.00;;;1.75;;
38037;SDS011;23843;51.320;12.340;2023-10-13T14:30:44;2.83;;;1.98;;
38037;SDS011;23843;51.320;12.340;2023-10-13T14:33:09;3.53;;;2.00;;
38037;SDS011;23843;51.320;12.340;2023-10-13T14:35:35;3.30;;;1.70;;
38037;SDS011;23843;51.320;12.340;2023-10-13T14:38:00;3.42;;;2.20;;
38037;SDS011;23843;51.320;12.340;2023-10-13T14:40:26;2.45;;;1.95;;